sensor_id;sensor_type;location;lat;lon;timestamp;P1;durP1;ratioP1;P2;durP2;ratioP2
7939;SDS011;4015;48.888;9.226;2023-04-07T00:00:24;10.00;;;8.63;;
7939;SDS011;4015;48.888;9.226;2023-04-07T00:02:50;9.87;;;8.87;;
7939;SDS011;4015;48.888;9.226;2023-04-07T00:05:16;13.07;;;9.13;;
7939;SDS011;4015;48.888;9.226;2023-04-07T00:07:41;9.23;;;8.20;;
7939;SDS011;4015;48.888;9.226;2023-04-07T00:10:07;12.13;;;9.63;;
7939;SDS011;4015;48.888;9.226;2023-04-07T00:12:32;11.13;;;9.03;;
7939;SDS011;4015;48.888;9.226;2023-04-07T00:14:58;10.30;;;9.23;;
7939;SDS011;4015;48.888;9.226;2023-04-07T00:17:23;10.93;;;9.17;;
7939;SDS011;4015;48.888;9.226;2023-04-07T00:19:49;9.33;;;8.17;;
7939;SDS011;4015;48.888;9.226;2023-04-07T00:22:14;9.40;;;8.30;;
7939;SDS011;4015;48.888;9.226;2023-04-07T00:24:39;10.07;;;7.90;;
7939;SDS011;4015;48.888;9.226;2023-04-07T00:27:05;10.17;;;8.60;;
7939;SDS011;4015;48.888;9.226;2023-04-07T00:29:30;10.27;;;8.17;;
7939;SDS011;4015;48.888;9.226;2023-04-07T00:31:56;8.93;;;7.63;;
7939;SDS011;4015;48.888;9.226;2023-04-07T00:34:21;9.63;;;8.67;;
7939;SDS011;4015;48.888;9.226;2023-04-07T00:36:46;12.40;;;8.83;;
7939;SDS011;4015;48.888;9.226;2023-04-07T00:39:16;8.97;;;8.07;;
7939;SDS011;4015;48.888;9.226;2023-04-07T00:41:43;9.50;;;8.00;;
7939;SDS011;4015;48.888;9.226;2023-04-07T00:44:09;9.40;;;7.70;;
7939;SDS011;4015;48.888;9.226;2023-04-07T00:46:34;8.67;;;7.73;;
7939;SDS011;4015;48.888;9.226;2023-04-07T00:48:59;8.90;;;6.97;;
7939;SDS011;4015;48.888;9.226;2023-04-07T00:51:25;10.53;;;7.83;;
7939;SDS011;4015;48.888;9.226;2023-04-07T00:53:51;9.90;;;8.03;;
7939;SDS011;4015;48.888;9.226;2023-04-07T00:56:16;9.10;;;6.77;;
7939;SDS011;4015;48.888;9.226;2023-04-07T00:58:41;8.63;;;7.70;;
7939;SDS011;4015;48.888;9.226;2023-04-07T01:01:18;7.20;;;6.47;;
7939;SDS011;4015;48.888;9.226;2023-04-07T01:04:10;6.80;;;6.10;;
7939;SDS011;4015;48.888;9.226;2023-04-07T01:06:43;11.97;;;7.47;;
7939;SDS011;4015;48.888;9.226;2023-04-07T01:09:18;8.53;;;7.03;;
7939;SDS011;4015;48.888;9.226;2023-04-07T01:14:20;7.30;;;6.30;;
7939;SDS011;4015;48.888;9.226;2023-04-07T01:16:48;8.93;;;6.77;;
7939;SDS011;4015;48.888;9.226;2023-04-07T01:19:17;9.50;;;6.73;;
7939;SDS011;4015;48.888;9.226;2023-04-07T01:21:45;7.23;;;6.53;;
7939;SDS011;4015;48.888;9.226;2023-04-07T01:27:24;7.70;;;6.83;;
7939;SDS011;4015;48.888;9.226;2023-04-07T01:30:02;8.17;;;6.87;;
7939;SDS011;4015;48.888;9.226;2023-04-07T01:32:29;8.10;;;7.00;;
7939;SDS011;4015;48.888;9.226;2023-04-07T01:34:56;11.13;;;7.27;;
7939;SDS011;4015;48.888;9.226;2023-04-07T01:37:24;7.57;;;6.80;;
7939;SDS011;4015;48.888;9.226;2023-04-07T01:39:51;9.43;;;6.97;;
7939;SDS011;4015;48.888;9.226;2023-04-07T01:42:16;6.97;;;6.10;;
7939;SDS011;4015;48.888;9.226;2023-04-07T01:44:44;7.07;;;6.37;;
7939;SDS011;4015;48.888;9.226;2023-04-07T01:47:11;7.63;;;6.50;;
7939;SDS011;4015;48.888;9.226;2023-04-07T01:49:36;6.93;;;6.23;;
7939;SDS011;4015;48.888;9.226;2023-04-07T01:52:03;6.90;;;6.20;;
7939;SDS011;4015;48.888;9.226;2023-04-07T01:54:29;10.93;;;6.70;;
7939;SDS011;4015;48.888;9.226;2023-04-07T01:56:55;9.03;;;6.80;;
7939;SDS011;4015;48.888;9.226;2023-04-07T01:59:21;7.53;;;6.20;;
7939;SDS011;4015;48.888;9.226;2023-04-07T02:01:46;7.33;;;6.20;;
7939;SDS011;4015;48.888;9.226;2023-04-07T02:06:53;6.67;;;5.97;;
7939;SDS011;4015;48.888;9.226;2023-04-07T02:09:23;6.93;;;6.23;;
7939;SDS011;4015;48.888;9.226;2023-04-07T02:11:53;7.17;;;6.50;;
7939;SDS011;4015;48.888;9.226;2023-04-07T02:14:22;7.83;;;7.03;;
7939;SDS011;4015;48.888;9.226;2023-04-07T02:16:48;8.77;;;6.10;;
7939;SDS011;4015;48.888;9.226;2023-04-07T02:19:15;6.93;;;6.20;;
7939;SDS011;4015;48.888;9.226;2023-04-07T02:21:41;8.03;;;6.63;;
7939;SDS011;4015;48.888;9.226;2023-04-07T02:24:10;7.70;;;6.87;;
7939;SDS011;4015;48.888;9.226;2023-04-07T02:26:36;7.53;;;6.83;;
7939;SDS011;4015;48.888;9.226;2023-04-07T02:29:02;8.53;;;6.53;;
7939;SDS011;4015;48.888;9.226;2023-04-07T02:31:28;7.20;;;6.27;;
7939;SDS011;4015;48.888;9.226;2023-04-07T02:33:53;7.90;;;7.10;;
7939;SDS011;4015;48.888;9.226;2023-04-07T02:36:19;6.70;;;6.00;;
7939;SDS011;4015;48.888;9.226;2023-04-07T02:38:44;9.43;;;6.57;;
7939;SDS011;4015;48.888;9.226;2023-04-07T02:41:10;6.90;;;6.20;;
7939;SDS011;4015;48.888;9.226;2023-04-07T02:43:35;7.83;;;6.33;;
7939;SDS011;4015;48.888;9.226;2023-04-07T02:46:00;10.40;;;7.30;;
7939;SDS011;4015;48.888;9.226;2023-04-07T02:48:26;8.43;;;6.10;;
7939;SDS011;4015;48.888;9.226;2023-04-07T02:50:51;7.67;;;6.70;;
7939;SDS011;4015;48.888;9.226;2023-04-07T02:53:17;7.87;;;7.07;;
7939;SDS011;4015;48.888;9.226;2023-04-07T02:55:42;8.47;;;7.07;;
7939;SDS011;4015;48.888;9.226;2023-04-07T02:58:07;7.50;;;6.27;;
7939;SDS011;4015;48.888;9.226;2023-04-07T03:00:33;8.37;;;7.40;;
7939;SDS011;4015;48.888;9.226;2023-04-07T03:02:58;7.13;;;6.03;;
7939;SDS011;4015;48.888;9.226;2023-04-07T03:05:24;8.63;;;6.83;;
7939;SDS011;4015;48.888;9.226;2023-04-07T03:07:49;8.50;;;6.83;;
7939;SDS011;4015;48.888;9.226;2023-04-07T03:10:14;7.23;;;6.27;;
7939;SDS011;4015;48.888;9.226;2023-04-07T03:12:40;9.93;;;7.63;;
7939;SDS011;4015;48.888;9.226;2023-04-07T03:15:07;8.47;;;7.23;;
7939;SDS011;4015;48.888;9.226;2023-04-07T03:17:32;7.93;;;6.53;;
7939;SDS011;4015;48.888;9.226;2023-04-07T03:19:58;9.67;;;7.43;;
7939;SDS011;4015;48.888;9.226;2023-04-07T03:22:23;9.10;;;7.13;;
7939;SDS011;4015;48.888;9.226;2023-04-07T03:24:48;9.93;;;7.10;;
7939;SDS011;4015;48.888;9.226;2023-04-07T03:27:14;8.13;;;7.03;;
7939;SDS011;4015;48.888;9.226;2023-04-07T03:29:41;8.17;;;7.30;;
7939;SDS011;4015;48.888;9.226;2023-04-07T03:32:06;8.70;;;7.60;;
7939;SDS011;4015;48.888;9.226;2023-04-07T03:34:32;11.00;;;6.83;;
7939;SDS011;4015;48.888;9.226;2023-04-07T03:36:57;10.83;;;7.10;;
7939;SDS011;4015;48.888;9.226;2023-04-07T03:39:22;7.53;;;6.57;;
7939;SDS011;4015;48.888;9.226;2023-04-07T03:41:48;9.83;;;7.50;;
7939;SDS011;4015;48.888;9.226;2023-04-07T03:44:13;7.63;;;6.87;;
7939;SDS011;4015;48.888;9.226;2023-04-07T03:46:38;7.70;;;6.80;;
7939;SDS011;4015;48.888;9.226;2023-04-07T03:49:04;10.63;;;7.27;;
7939;SDS011;4015;48.888;9.226;2023-04-07T03:51:30;10.70;;;7.23;;
7939;SDS011;4015;48.888;9.226;2023-04-07T03:53:56;8.13;;;7.33;;
7939;SDS011;4015;48.888;9.226;2023-04-07T03:56:22;9.13;;;7.50;;
7939;SDS011;4015;48.888;9.226;2023-04-07T03:58:48;9.17;;;7.30;;
7939;SDS011;4015;48.888;9.226;2023-04-07T04:01:14;9.63;;;7.90;;
7939;SDS011;4015;48.888;9.226;2023-04-07T04:03:40;9.53;;;7.27;;
7939;SDS011;4015;48.888;9.226;2023-04-07T04:06:05;8.20;;;7.03;;
7939;SDS011;4015;48.888;9.226;2023-04-07T04:08:31;9.37;;;8.00;;
7939;SDS011;4015;48.888;9.226;2023-04-07T04:10:56;10.97;;;7.73;;
7939;SDS011;4015;48.888;9.226;2023-04-07T04:13:22;10.13;;;7.57;;
7939;SDS011;4015;48.888;9.226;2023-04-07T04:15:47;10.70;;;8.50;;
7939;SDS011;4015;48.888;9.226;2023-04-07T04:18:12;10.43;;;8.20;;
7939;SDS011;4015;48.888;9.226;2023-04-07T04:20:37;9.23;;;8.07;;
7939;SDS011;4015;48.888;9.226;2023-04-07T04:23:03;11.30;;;7.90;;
7939;SDS011;4015;48.888;9.226;2023-04-07T04:25:28;8.30;;;7.03;;
7939;SDS011;4015;48.888;9.226;2023-04-07T04:27:54;9.27;;;8.10;;
7939;SDS011;4015;48.888;9.226;2023-04-07T04:30:20;9.50;;;7.23;;
7939;SDS011;4015;48.888;9.226;2023-04-07T04:32:45;9.63;;;8.27;;
7939;SDS011;4015;48.888;9.226;2023-04-07T04:35:10;10.73;;;8.20;;
7939;SDS011;4015;48.888;9.226;2023-04-07T04:37:36;11.17;;;8.20;;
7939;SDS011;4015;48.888;9.226;2023-04-07T04:40:01;9.27;;;7.83;;
7939;SDS011;4015;48.888;9.226;2023-04-07T04:42:26;9.27;;;8.00;;
7939;SDS011;4015;48.888;9.226;2023-04-07T04:44:52;8.50;;;7.53;;
7939;SDS011;4015;48.888;9.226;2023-04-07T04:47:17;8.67;;;7.57;;
7939;SDS011;4015;48.888;9.226;2023-04-07T04:49:43;11.17;;;7.97;;
7939;SDS011;4015;48.888;9.226;2023-04-07T04:52:08;8.87;;;7.70;;
7939;SDS011;4015;48.888;9.226;2023-04-07T04:54:34;12.00;;;8.17;;
7939;SDS011;4015;48.888;9.226;2023-04-07T04:56:59;8.80;;;7.80;;
7939;SDS011;4015;48.888;9.226;2023-04-07T04:59:25;9.30;;;7.73;;
7939;SDS011;4015;48.888;9.226;2023-04-07T05:01:51;10.77;;;8.30;;
7939;SDS011;4015;48.888;9.226;2023-04-07T05:04:16;9.37;;;7.80;;
7939;SDS011;4015;48.888;9.226;2023-04-07T05:06:41;8.93;;;7.60;;
7939;SDS011;4015;48.888;9.226;2023-04-07T05:09:07;9.37;;;8.27;;
7939;SDS011;4015;48.888;9.226;2023-04-07T05:11:33;9.20;;;8.30;;
7939;SDS011;4015;48.888;9.226;2023-04-07T05:13:58;10.20;;;8.63;;
7939;SDS011;4015;48.888;9.226;2023-04-07T05:16:23;12.13;;;9.23;;
7939;SDS011;4015;48.888;9.226;2023-04-07T05:18:49;10.53;;;7.87;;
7939;SDS011;4015;48.888;9.226;2023-04-07T05:21:14;8.50;;;7.43;;
7939;SDS011;4015;48.888;9.226;2023-04-07T05:23:40;10.43;;;8.83;;
7939;SDS011;4015;48.888;9.226;2023-04-07T05:26:05;8.90;;;8.00;;
7939;SDS011;4015;48.888;9.226;2023-04-07T05:28:31;9.23;;;8.27;;
7939;SDS011;4015;48.888;9.226;2023-04-07T05:30:56;9.70;;;8.70;;
7939;SDS011;4015;48.888;9.226;2023-04-07T05:33:21;9.83;;;8.83;;
7939;SDS011;4015;48.888;9.226;2023-04-07T05:35:47;9.77;;;8.10;;
7939;SDS011;4015;48.888;9.226;2023-04-07T05:38:12;9.93;;;8.93;;
7939;SDS011;4015;48.888;9.226;2023-04-07T05:40:38;10.17;;;8.50;;
7939;SDS011;4015;48.888;9.226;2023-04-07T05:43:04;9.00;;;8.10;;
7939;SDS011;4015;48.888;9.226;2023-04-07T05:45:30;9.07;;;7.57;;
7939;SDS011;4015;48.888;9.226;2023-04-07T05:47:55;9.37;;;8.23;;
7939;SDS011;4015;48.888;9.226;2023-04-07T05:50:20;10.20;;;8.27;;
7939;SDS011;4015;48.888;9.226;2023-04-07T05:52:46;9.77;;;7.70;;
7939;SDS011;4015;48.888;9.226;2023-04-07T05:55:11;14.53;;;10.13;;
7939;SDS011;4015;48.888;9.226;2023-04-07T05:57:36;9.57;;;8.47;;
7939;SDS011;4015;48.888;9.226;2023-04-07T06:00:02;9.63;;;8.23;;
7939;SDS011;4015;48.888;9.226;2023-04-07T06:02:28;10.13;;;8.60;;
7939;SDS011;4015;48.888;9.226;2023-04-07T06:04:54;9.07;;;8.07;;
7939;SDS011;4015;48.888;9.226;2023-04-07T06:07:19;10.03;;;8.53;;
7939;SDS011;4015;48.888;9.226;2023-04-07T06:09:44;12.20;;;9.30;;
7939;SDS011;4015;48.888;9.226;2023-04-07T06:12:10;10.10;;;8.40;;
7939;SDS011;4015;48.888;9.226;2023-04-07T06:14:36;10.40;;;8.47;;
7939;SDS011;4015;48.888;9.226;2023-04-07T06:17:02;10.43;;;8.57;;
7939;SDS011;4015;48.888;9.226;2023-04-07T06:19:27;11.97;;;9.00;;
7939;SDS011;4015;48.888;9.226;2023-04-07T06:21:52;10.60;;;8.53;;
7939;SDS011;4015;48.888;9.226;2023-04-07T06:24:18;10.33;;;8.77;;
7939;SDS011;4015;48.888;9.226;2023-04-07T06:26:46;10.00;;;8.90;;
7939;SDS011;4015;48.888;9.226;2023-04-07T06:29:12;11.57;;;9.30;;
7939;SDS011;4015;48.888;9.226;2023-04-07T06:31:37;11.07;;;9.33;;
7939;SDS011;4015;48.888;9.226;2023-04-07T06:34:02;11.03;;;9.23;;
7939;SDS011;4015;48.888;9.226;2023-04-07T06:36:28;11.03;;;9.57;;
7939;SDS011;4015;48.888;9.226;2023-04-07T06:38:53;9.87;;;8.83;;
7939;SDS011;4015;48.888;9.226;2023-04-07T06:41:19;10.63;;;9.43;;
7939;SDS011;4015;48.888;9.226;2023-04-07T06:43:45;9.00;;;8.07;;
7939;SDS011;4015;48.888;9.226;2023-04-07T06:46:15;10.53;;;8.53;;
7939;SDS011;4015;48.888;9.226;2023-04-07T06:48:40;10.17;;;8.80;;
7939;SDS011;4015;48.888;9.226;2023-04-07T06:51:06;11.27;;;8.87;;
7939;SDS011;4015;48.888;9.226;2023-04-07T06:53:31;10.73;;;8.20;;
7939;SDS011;4015;48.888;9.226;2023-04-07T06:58:29;8.93;;;8.07;;
7939;SDS011;4015;48.888;9.226;2023-04-07T07:00:55;9.40;;;8.10;;
7939;SDS011;4015;48.888;9.226;2023-04-07T07:03:20;9.73;;;8.73;;
7939;SDS011;4015;48.888;9.226;2023-04-07T07:05:45;11.53;;;8.83;;
7939;SDS011;4015;48.888;9.226;2023-04-07T07:08:11;10.30;;;8.47;;
7939;SDS011;4015;48.888;9.226;2023-04-07T07:10:36;11.10;;;8.77;;
7939;SDS011;4015;48.888;9.226;2023-04-07T07:13:01;8.93;;;8.03;;
7939;SDS011;4015;48.888;9.226;2023-04-07T07:15:27;10.40;;;8.50;;
7939;SDS011;4015;48.888;9.226;2023-04-07T07:17:52;8.37;;;7.53;;
7939;SDS011;4015;48.888;9.226;2023-04-07T07:20:17;9.40;;;8.50;;
7939;SDS011;4015;48.888;9.226;2023-04-07T07:22:43;8.43;;;7.50;;
7939;SDS011;4015;48.888;9.226;2023-04-07T07:25:08;9.23;;;7.53;;
7939;SDS011;4015;48.888;9.226;2023-04-07T07:27:34;9.57;;;8.67;;
7939;SDS011;4015;48.888;9.226;2023-04-07T07:29:59;8.47;;;7.53;;
7939;SDS011;4015;48.888;9.226;2023-04-07T07:32:25;8.50;;;7.37;;
7939;SDS011;4015;48.888;9.226;2023-04-07T07:34:50;7.95;;;7.18;;
7939;SDS011;4015;48.888;9.226;2023-04-07T07:37:15;7.30;;;6.60;;
7939;SDS011;4015;48.888;9.226;2023-04-07T07:39:41;6.78;;;6.18;;
7939;SDS011;4015;48.888;9.226;2023-04-07T07:42:06;6.72;;;6.03;;
7939;SDS011;4015;48.888;9.226;2023-04-07T07:44:32;6.80;;;6.20;;
7939;SDS011;4015;48.888;9.226;2023-04-07T07:46:57;7.15;;;6.45;;
7939;SDS011;4015;48.888;9.226;2023-04-07T07:49:22;8.05;;;7.00;;
7939;SDS011;4015;48.888;9.226;2023-04-07T07:51:47;8.00;;;7.20;;
7939;SDS011;4015;48.888;9.226;2023-04-07T07:54:13;7.38;;;6.63;;
7939;SDS011;4015;48.888;9.226;2023-04-07T07:56:38;7.05;;;6.35;;
7939;SDS011;4015;48.888;9.226;2023-04-07T07:59:03;8.07;;;6.70;;
7939;SDS011;4015;48.888;9.226;2023-04-07T08:01:32;7.20;;;6.40;;
7939;SDS011;4015;48.888;9.226;2023-04-07T08:03:57;6.70;;;6.03;;
7939;SDS011;4015;48.888;9.226;2023-04-07T08:06:23;9.25;;;7.28;;
7939;SDS011;4015;48.888;9.226;2023-04-07T08:08:48;8.65;;;6.68;;
7939;SDS011;4015;48.888;9.226;2023-04-07T08:11:14;6.78;;;6.03;;
7939;SDS011;4015;48.888;9.226;2023-04-07T08:13:41;5.80;;;5.13;;
7939;SDS011;4015;48.888;9.226;2023-04-07T08:16:09;6.18;;;5.35;;
7939;SDS011;4015;48.888;9.226;2023-04-07T08:18:35;5.97;;;5.22;;
7939;SDS011;4015;48.888;9.226;2023-04-07T08:21:00;5.57;;;4.90;;
7939;SDS011;4015;48.888;9.226;2023-04-07T08:23:25;6.60;;;4.85;;
7939;SDS011;4015;48.888;9.226;2023-04-07T08:25:51;9.20;;;6.10;;
7939;SDS011;4015;48.888;9.226;2023-04-07T08:28:16;6.13;;;5.47;;
7939;SDS011;4015;48.888;9.226;2023-04-07T08:30:41;7.72;;;5.93;;
7939;SDS011;4015;48.888;9.226;2023-04-07T08:33:07;7.28;;;6.53;;
7939;SDS011;4015;48.888;9.226;2023-04-07T08:35:32;7.07;;;6.35;;
7939;SDS011;4015;48.888;9.226;2023-04-07T08:37:57;6.40;;;5.78;;
7939;SDS011;4015;48.888;9.226;2023-04-07T08:40:23;6.75;;;5.93;;
7939;SDS011;4015;48.888;9.226;2023-04-07T08:42:48;6.20;;;5.60;;
7939;SDS011;4015;48.888;9.226;2023-04-07T08:45:15;6.47;;;5.88;;
7939;SDS011;4015;48.888;9.226;2023-04-07T08:47:41;6.78;;;6.05;;
7939;SDS011;4015;48.888;9.226;2023-04-07T08:50:08;8.80;;;5.70;;
7939;SDS011;4015;48.888;9.226;2023-04-07T08:52:44;7.07;;;5.13;;
7939;SDS011;4015;48.888;9.226;2023-04-07T08:55:17;5.68;;;5.18;;
7939;SDS011;4015;48.888;9.226;2023-04-07T08:57:43;5.88;;;5.30;;
7939;SDS011;4015;48.888;9.226;2023-04-07T09:00:10;5.65;;;5.15;;
7939;SDS011;4015;48.888;9.226;2023-04-07T09:02:37;7.13;;;5.20;;
7939;SDS011;4015;48.888;9.226;2023-04-07T09:05:05;5.45;;;4.95;;
7939;SDS011;4015;48.888;9.226;2023-04-07T09:07:32;6.53;;;5.78;;
7939;SDS011;4015;48.888;9.226;2023-04-07T09:09:59;7.72;;;5.28;;
7939;SDS011;4015;48.888;9.226;2023-04-07T09:12:26;5.70;;;5.13;;
7939;SDS011;4015;48.888;9.226;2023-04-07T09:14:52;5.40;;;4.90;;
7939;SDS011;4015;48.888;9.226;2023-04-07T09:17:18;6.00;;;5.38;;
7939;SDS011;4015;48.888;9.226;2023-04-07T09:19:44;6.45;;;5.78;;
7939;SDS011;4015;48.888;9.226;2023-04-07T09:22:09;6.50;;;5.03;;
7939;SDS011;4015;48.888;9.226;2023-04-07T09:24:38;5.13;;;4.63;;
7939;SDS011;4015;48.888;9.226;2023-04-07T09:27:13;5.50;;;5.00;;
7939;SDS011;4015;48.888;9.226;2023-04-07T09:29:41;9.13;;;5.55;;
7939;SDS011;4015;48.888;9.226;2023-04-07T09:32:08;5.60;;;5.10;;
7939;SDS011;4015;48.888;9.226;2023-04-07T09:34:36;5.65;;;5.00;;
7939;SDS011;4015;48.888;9.226;2023-04-07T09:37:06;5.93;;;5.32;;
7939;SDS011;4015;48.888;9.226;2023-04-07T09:39:33;5.88;;;5.28;;
7939;SDS011;4015;48.888;9.226;2023-04-07T09:42:13;5.38;;;4.97;;
7939;SDS011;4015;48.888;9.226;2023-04-07T09:44:39;5.55;;;4.93;;
7939;SDS011;4015;48.888;9.226;2023-04-07T09:47:07;9.23;;;5.78;;
7939;SDS011;4015;48.888;9.226;2023-04-07T09:49:33;6.68;;;5.63;;
7939;SDS011;4015;48.888;9.226;2023-04-07T09:52:17;5.07;;;4.63;;
7939;SDS011;4015;48.888;9.226;2023-04-07T09:54:44;5.70;;;5.18;;
7939;SDS011;4015;48.888;9.226;2023-04-07T09:57:11;8.75;;;4.93;;
7939;SDS011;4015;48.888;9.226;2023-04-07T09:59:38;6.15;;;5.35;;
7939;SDS011;4015;48.888;9.226;2023-04-07T10:02:06;6.25;;;5.57;;
7939;SDS011;4015;48.888;9.226;2023-04-07T10:04:32;6.25;;;5.65;;
7939;SDS011;4015;48.888;9.226;2023-04-07T10:06:58;7.15;;;4.88;;
7939;SDS011;4015;48.888;9.226;2023-04-07T10:09:27;5.85;;;5.03;;
7939;SDS011;4015;48.888;9.226;2023-04-07T10:11:54;7.63;;;5.75;;
7939;SDS011;4015;48.888;9.226;2023-04-07T10:14:23;7.07;;;5.22;;
7939;SDS011;4015;48.888;9.226;2023-04-07T10:16:51;6.20;;;5.22;;
7939;SDS011;4015;48.888;9.226;2023-04-07T10:19:17;6.80;;;5.10;;
7939;SDS011;4015;48.888;9.226;2023-04-07T10:21:43;6.25;;;5.63;;
7939;SDS011;4015;48.888;9.226;2023-04-07T10:26:50;5.75;;;4.97;;
7939;SDS011;4015;48.888;9.226;2023-04-07T10:29:18;5.93;;;4.40;;
7939;SDS011;4015;48.888;9.226;2023-04-07T10:31:46;5.90;;;5.18;;
7939;SDS011;4015;48.888;9.226;2023-04-07T10:34:11;6.18;;;4.93;;
7939;SDS011;4015;48.888;9.226;2023-04-07T10:39:38;5.63;;;4.97;;
7939;SDS011;4015;48.888;9.226;2023-04-07T10:42:04;6.38;;;5.55;;
7939;SDS011;4015;48.888;9.226;2023-04-07T10:47:07;6.72;;;4.78;;
7939;SDS011;4015;48.888;9.226;2023-04-07T10:49:32;4.90;;;4.45;;
7939;SDS011;4015;48.888;9.226;2023-04-07T10:54:36;5.85;;;4.57;;
7939;SDS011;4015;48.888;9.226;2023-04-07T10:59:28;6.15;;;4.88;;
7939;SDS011;4015;48.888;9.226;2023-04-07T11:04:42;5.85;;;4.80;;
7939;SDS011;4015;48.888;9.226;2023-04-07T11:07:08;6.07;;;4.28;;
7939;SDS011;4015;48.888;9.226;2023-04-07T11:09:34;5.45;;;4.65;;
7939;SDS011;4015;48.888;9.226;2023-04-07T11:12:00;6.15;;;4.65;;
7939;SDS011;4015;48.888;9.226;2023-04-07T11:16:52;5.45;;;3.90;;
7939;SDS011;4015;48.888;9.226;2023-04-07T11:19:18;5.07;;;4.57;;
7939;SDS011;4015;48.888;9.226;2023-04-07T11:21:43;6.43;;;4.28;;
7939;SDS011;4015;48.888;9.226;2023-04-07T11:24:09;5.15;;;4.65;;
7939;SDS011;4015;48.888;9.226;2023-04-07T11:26:38;6.07;;;3.70;;
7939;SDS011;4015;48.888;9.226;2023-04-07T11:29:04;5.47;;;3.60;;
7939;SDS011;4015;48.888;9.226;2023-04-07T11:31:29;4.97;;;3.80;;
7939;SDS011;4015;48.888;9.226;2023-04-07T11:34:00;5.35;;;4.28;;
7939;SDS011;4015;48.888;9.226;2023-04-07T11:36:32;6.90;;;4.50;;
7939;SDS011;4015;48.888;9.226;2023-04-07T11:38:58;5.40;;;4.57;;
7939;SDS011;4015;48.888;9.226;2023-04-07T11:41:26;6.03;;;4.20;;
7939;SDS011;4015;48.888;9.226;2023-04-07T11:46:31;6.03;;;4.47;;
7939;SDS011;4015;48.888;9.226;2023-04-07T11:49:06;7.10;;;4.47;;
7939;SDS011;4015;48.888;9.226;2023-04-07T11:51:36;4.45;;;4.05;;
7939;SDS011;4015;48.888;9.226;2023-04-07T11:54:02;5.55;;;4.50;;
7939;SDS011;4015;48.888;9.226;2023-04-07T11:56:27;6.65;;;4.53;;
7939;SDS011;4015;48.888;9.226;2023-04-07T11:58:54;5.78;;;4.15;;
7939;SDS011;4015;48.888;9.226;2023-04-07T12:01:22;5.75;;;3.70;;
7939;SDS011;4015;48.888;9.226;2023-04-07T12:03:56;4.68;;;3.70;;
7939;SDS011;4015;48.888;9.226;2023-04-07T12:06:27;4.38;;;3.53;;
7939;SDS011;4015;48.888;9.226;2023-04-07T12:08:59;4.93;;;2.70;;
7939;SDS011;4015;48.888;9.226;2023-04-07T12:11:25;3.67;;;3.08;;
7939;SDS011;4015;48.888;9.226;2023-04-07T12:13:51;4.17;;;3.30;;
7939;SDS011;4015;48.888;9.226;2023-04-07T12:16:17;4.37;;;2.83;;
7939;SDS011;4015;48.888;9.226;2023-04-07T12:18:43;5.17;;;3.10;;
7939;SDS011;4015;48.888;9.226;2023-04-07T12:21:08;4.93;;;2.87;;
7939;SDS011;4015;48.888;9.226;2023-04-07T12:23:34;3.60;;;2.30;;
7939;SDS011;4015;48.888;9.226;2023-04-07T12:25:59;4.47;;;2.97;;
7939;SDS011;4015;48.888;9.226;2023-04-07T12:28:25;20.23;;;3.33;;
7939;SDS011;4015;48.888;9.226;2023-04-07T12:30:50;3.60;;;3.03;;
7939;SDS011;4015;48.888;9.226;2023-04-07T12:33:16;5.43;;;2.58;;
7939;SDS011;4015;48.888;9.226;2023-04-07T12:35:41;3.92;;;3.10;;
7939;SDS011;4015;48.888;9.226;2023-04-07T12:38:06;6.67;;;3.20;;
7939;SDS011;4015;48.888;9.226;2023-04-07T12:40:32;4.73;;;2.80;;
7939;SDS011;4015;48.888;9.226;2023-04-07T12:42:58;2.78;;;2.10;;
7939;SDS011;4015;48.888;9.226;2023-04-07T12:45:23;3.55;;;2.65;;
7939;SDS011;4015;48.888;9.226;2023-04-07T12:47:49;3.97;;;2.20;;
7939;SDS011;4015;48.888;9.226;2023-04-07T12:50:14;1.90;;;1.70;;
7939;SDS011;4015;48.888;9.226;2023-04-07T12:52:41;7.40;;;2.10;;
7939;SDS011;4015;48.888;9.226;2023-04-07T12:55:07;2.03;;;1.63;;
7939;SDS011;4015;48.888;9.226;2023-04-07T12:57:32;3.20;;;1.97;;
7939;SDS011;4015;48.888;9.226;2023-04-07T12:59:57;3.13;;;1.77;;
7939;SDS011;4015;48.888;9.226;2023-04-07T13:02:23;5.77;;;3.20;;
7939;SDS011;4015;48.888;9.226;2023-04-07T13:04:48;4.20;;;2.57;;
7939;SDS011;4015;48.888;9.226;2023-04-07T13:07:14;3.35;;;2.10;;
7939;SDS011;4015;48.888;9.226;2023-04-07T13:09:40;3.60;;;1.92;;
7939;SDS011;4015;48.888;9.226;2023-04-07T13:12:09;4.50;;;2.87;;
7939;SDS011;4015;48.888;9.226;2023-04-07T13:14:36;3.63;;;3.03;;
7939;SDS011;4015;48.888;9.226;2023-04-07T13:17:06;4.72;;;2.85;;
7939;SDS011;4015;48.888;9.226;2023-04-07T13:19:32;3.53;;;2.97;;
7939;SDS011;4015;48.888;9.226;2023-04-07T13:21:57;4.17;;;3.30;;
7939;SDS011;4015;48.888;9.226;2023-04-07T13:24:23;6.25;;;3.00;;
7939;SDS011;4015;48.888;9.226;2023-04-07T13:26:49;4.53;;;2.80;;
7939;SDS011;4015;48.888;9.226;2023-04-07T13:29:15;5.97;;;3.45;;
7939;SDS011;4015;48.888;9.226;2023-04-07T13:31:41;4.15;;;2.70;;
7939;SDS011;4015;48.888;9.226;2023-04-07T13:34:06;4.13;;;3.10;;
7939;SDS011;4015;48.888;9.226;2023-04-07T13:36:31;4.15;;;2.45;;
7939;SDS011;4015;48.888;9.226;2023-04-07T13:38:57;4.10;;;2.42;;
7939;SDS011;4015;48.888;9.226;2023-04-07T13:41:22;3.88;;;2.97;;
7939;SDS011;4015;48.888;9.226;2023-04-07T13:43:48;3.55;;;2.30;;
7939;SDS011;4015;48.888;9.226;2023-04-07T13:46:13;4.22;;;2.70;;
7939;SDS011;4015;48.888;9.226;2023-04-07T13:48:43;3.60;;;2.53;;
7939;SDS011;4015;48.888;9.226;2023-04-07T13:51:09;4.25;;;2.97;;
7939;SDS011;4015;48.888;9.226;2023-04-07T13:53:35;2.33;;;2.10;;
7939;SDS011;4015;48.888;9.226;2023-04-07T13:56:00;4.82;;;2.35;;
7939;SDS011;4015;48.888;9.226;2023-04-07T13:58:27;5.97;;;4.43;;
7939;SDS011;4015;48.888;9.226;2023-04-07T14:00:53;4.72;;;3.38;;
7939;SDS011;4015;48.888;9.226;2023-04-07T14:03:18;3.17;;;1.90;;
7939;SDS011;4015;48.888;9.226;2023-04-07T14:05:44;3.53;;;2.13;;
7939;SDS011;4015;48.888;9.226;2023-04-07T14:08:10;5.57;;;2.75;;
7939;SDS011;4015;48.888;9.226;2023-04-07T14:10:35;5.45;;;3.08;;
7939;SDS011;4015;48.888;9.226;2023-04-07T14:13:00;5.63;;;2.95;;
7939;SDS011;4015;48.888;9.226;2023-04-07T14:15:26;4.03;;;2.35;;
7939;SDS011;4015;48.888;9.226;2023-04-07T14:17:51;3.15;;;2.20;;
7939;SDS011;4015;48.888;9.226;2023-04-07T14:20:17;5.30;;;2.85;;
7939;SDS011;4015;48.888;9.226;2023-04-07T14:22:42;4.85;;;2.65;;
7939;SDS011;4015;48.888;9.226;2023-04-07T14:25:08;4.75;;;3.05;;
7939;SDS011;4015;48.888;9.226;2023-04-07T14:27:35;4.75;;;2.55;;
7939;SDS011;4015;48.888;9.226;2023-04-07T14:30:01;7.30;;;2.97;;
7939;SDS011;4015;48.888;9.226;2023-04-07T14:32:26;5.50;;;3.00;;
7939;SDS011;4015;48.888;9.226;2023-04-07T14:34:56;3.35;;;2.35;;
7939;SDS011;4015;48.888;9.226;2023-04-07T14:37:23;3.53;;;2.38;;
7939;SDS011;4015;48.888;9.226;2023-04-07T14:39:50;3.08;;;2.45;;
7939;SDS011;4015;48.888;9.226;2023-04-07T14:42:19;4.20;;;2.25;;
7939;SDS011;4015;48.888;9.226;2023-04-07T14:44:44;3.63;;;2.60;;
7939;SDS011;4015;48.888;9.226;2023-04-07T14:47:10;4.70;;;3.38;;
7939;SDS011;4015;48.888;9.226;2023-04-07T14:49:36;4.90;;;3.45;;
7939;SDS011;4015;48.888;9.226;2023-04-07T14:52:02;4.38;;;2.90;;
7939;SDS011;4015;48.888;9.226;2023-04-07T14:54:27;6.53;;;2.90;;
7939;SDS011;4015;48.888;9.226;2023-04-07T14:56:53;4.50;;;2.95;;
7939;SDS011;4015;48.888;9.226;2023-04-07T14:59:19;3.85;;;2.45;;
7939;SDS011;4015;48.888;9.226;2023-04-07T15:01:44;4.00;;;2.85;;
7939;SDS011;4015;48.888;9.226;2023-04-07T15:04:10;3.90;;;2.90;;
7939;SDS011;4015;48.888;9.226;2023-04-07T15:06:35;3.78;;;2.72;;
7939;SDS011;4015;48.888;9.226;2023-04-07T15:09:00;4.85;;;3.15;;
7939;SDS011;4015;48.888;9.226;2023-04-07T15:11:26;2.80;;;2.30;;
7939;SDS011;4015;48.888;9.226;2023-04-07T15:13:51;3.53;;;2.17;;
7939;SDS011;4015;48.888;9.226;2023-04-07T15:16:16;5.00;;;2.15;;
7939;SDS011;4015;48.888;9.226;2023-04-07T15:18:43;5.45;;;2.30;;
7939;SDS011;4015;48.888;9.226;2023-04-07T15:21:11;3.17;;;1.95;;
7939;SDS011;4015;48.888;9.226;2023-04-07T15:23:37;4.32;;;2.10;;
7939;SDS011;4015;48.888;9.226;2023-04-07T15:26:04;2.60;;;1.88;;
7939;SDS011;4015;48.888;9.226;2023-04-07T15:28:30;3.65;;;2.13;;
7939;SDS011;4015;48.888;9.226;2023-04-07T15:30:56;3.53;;;2.08;;
7939;SDS011;4015;48.888;9.226;2023-04-07T15:33:21;2.97;;;1.88;;
7939;SDS011;4015;48.888;9.226;2023-04-07T15:35:47;3.50;;;1.80;;
7939;SDS011;4015;48.888;9.226;2023-04-07T15:38:12;3.05;;;1.60;;